sensor_id;sensor_type;location;lat;lon;timestamp;P1;durP1;ratioP1;P2;durP2;ratioP2
78181;SDS011;67441;50.116;8.696;2023-06-10T00:00:13;7.85;;;6.93;;
78181;SDS011;67441;50.116;8.696;2023-06-10T00:00:40;8.40;;;7.03;;
78181;SDS011;67441;50.116;8.696;2023-06-10T00:01:08;8.20;;;7.28;;
78181;SDS011;67441;50.116;8.696;2023-06-10T00:02:01;8.32;;;7.40;;
78181;SDS011;67441;50.116;8.696;2023-06-10T00:02:52;7.25;;;6.55;;
78181;SDS011;67441;50.116;8.696;2023-06-10T00:03:43;8.20;;;6.22;;
78181;SDS011;67441;50.116;8.696;2023-06-10T00:04:34;8.73;;;7.00;;
78181;SDS011;67441;50.116;8.696;2023-06-10T00:05:01;7.57;;;6.60;;
78181;SDS011;67441;50.116;8.696;2023-06-10T00:05:54;7.75;;;6.72;;
78181;SDS011;67441;50.116;8.696;2023-06-10T00:06:49;7.95;;;7.15;;
78181;SDS011;67441;50.116;8.696;2023-06-10T00:07:39;7.55;;;6.75;;
78181;SDS011;67441;50.116;8.696;2023-06-10T00:08:06;10.65;;;8.25;;
78181;SDS011;67441;50.116;8.696;2023-06-10T00:08:35;10.05;;;7.75;;
78181;SDS011;67441;50.116;8.696;2023-06-10T00:09:05;8.25;;;7.50;;
78181;SDS011;67441;50.116;8.696;2023-06-10T00:09:30;8.65;;;7.30;;
78181;SDS011;67441;50.116;8.696;2023-06-10T00:10:22;6.97;;;6.30;;
78181;SDS011;67441;50.116;8.696;2023-06-10T00:10:48;8.68;;;7.43;;
78181;SDS011;67441;50.116;8.696;2023-06-10T00:11:38;7.93;;;6.78;;
78181;SDS011;67441;50.116;8.696;2023-06-10T00:12:31;7.03;;;6.32;;
78181;SDS011;67441;50.116;8.696;2023-06-10T00:13:02;9.10;;;7.32;;
78181;SDS011;67441;50.116;8.696;2023-06-10T00:13:28;8.65;;;7.15;;
78181;SDS011;67441;50.116;8.696;2023-06-10T00:14:19;7.68;;;6.88;;
78181;SDS011;67441;50.116;8.696;2023-06-10T00:15:10;9.60;;;7.15;;
78181;SDS011;67441;50.116;8.696;2023-06-10T00:15:35;7.97;;;7.18;;
78181;SDS011;67441;50.116;8.696;2023-06-10T00:16:00;8.57;;;7.15;;
78181;SDS011;67441;50.116;8.696;2023-06-10T00:16:51;8.00;;;7.20;;
78181;SDS011;67441;50.116;8.696;2023-06-10T00:17:17;7.68;;;6.93;;
78181;SDS011;67441;50.116;8.696;2023-06-10T00:18:08;8.68;;;7.70;;
78181;SDS011;67441;50.116;8.696;2023-06-10T00:18:34;9.98;;;7.50;;
78181;SDS011;67441;50.116;8.696;2023-06-10T00:19:02;9.15;;;7.07;;
78181;SDS011;67441;50.116;8.696;2023-06-10T00:19:28;8.18;;;7.38;;
78181;SDS011;67441;50.116;8.696;2023-06-10T00:19:55;9.10;;;8.10;;
78181;SDS011;67441;50.116;8.696;2023-06-10T00:20:47;9.93;;;8.75;;
78181;SDS011;67441;50.116;8.696;2023-06-10T00:21:13;12.23;;;8.68;;
78181;SDS011;67441;50.116;8.696;2023-06-10T00:22:05;8.48;;;7.35;;
78181;SDS011;67441;50.116;8.696;2023-06-10T00:22:58;7.68;;;6.97;;
78181;SDS011;67441;50.116;8.696;2023-06-10T00:23:26;9.75;;;7.63;;
78181;SDS011;67441;50.116;8.696;2023-06-10T00:23:54;8.32;;;7.50;;
78181;SDS011;67441;50.116;8.696;2023-06-10T00:24:20;8.65;;;7.35;;
78181;SDS011;67441;50.116;8.696;2023-06-10T00:25:10;8.35;;;7.25;;
78181;SDS011;67441;50.116;8.696;2023-06-10T00:26:01;8.23;;;7.43;;
78181;SDS011;67441;50.116;8.696;2023-06-10T00:26:51;11.23;;;7.40;;
78181;SDS011;67441;50.116;8.696;2023-06-10T00:27:42;10.15;;;7.63;;
78181;SDS011;67441;50.116;8.696;2023-06-10T00:28:33;8.60;;;6.97;;
78181;SDS011;67441;50.116;8.696;2023-06-10T00:29:26;8.32;;;7.47;;
78181;SDS011;67441;50.116;8.696;2023-06-10T00:30:16;8.07;;;7.28;;
78181;SDS011;67441;50.116;8.696;2023-06-10T00:31:07;8.23;;;6.97;;
78181;SDS011;67441;50.116;8.696;2023-06-10T00:32:02;8.43;;;7.07;;
78181;SDS011;67441;50.116;8.696;2023-06-10T00:32:52;9.05;;;7.43;;
78181;SDS011;67441;50.116;8.696;2023-06-10T00:33:43;8.93;;;7.00;;
78181;SDS011;67441;50.116;8.696;2023-06-10T00:34:33;7.97;;;7.00;;
78181;SDS011;67441;50.116;8.696;2023-06-10T00:35:24;8.27;;;7.05;;
78181;SDS011;67441;50.116;8.696;2023-06-10T00:36:15;8.02;;;7.07;;
78181;SDS011;67441;50.116;8.696;2023-06-10T00:36:40;9.32;;;7.45;;
78181;SDS011;67441;50.116;8.696;2023-06-10T00:37:31;8.45;;;6.80;;
78181;SDS011;67441;50.116;8.696;2023-06-10T00:37:57;7.90;;;7.10;;
78181;SDS011;67441;50.116;8.696;2023-06-10T00:38:47;10.30;;;7.57;;
78181;SDS011;67441;50.116;8.696;2023-06-10T00:39:12;9.48;;;7.65;;
78181;SDS011;67441;50.116;8.696;2023-06-10T00:40:03;9.02;;;7.32;;
78181;SDS011;67441;50.116;8.696;2023-06-10T00:40:29;8.10;;;7.25;;
78181;SDS011;67441;50.116;8.696;2023-06-10T00:41:20;8.35;;;6.95;;
78181;SDS011;67441;50.116;8.696;2023-06-10T00:42:10;7.50;;;6.80;;
78181;SDS011;67441;50.116;8.696;2023-06-10T00:43:01;8.82;;;7.40;;
78181;SDS011;67441;50.116;8.696;2023-06-10T00:43:26;8.95;;;6.93;;
78181;SDS011;67441;50.116;8.696;2023-06-10T00:44:17;8.25;;;7.22;;
78181;SDS011;67441;50.116;8.696;2023-06-10T00:45:08;9.02;;;6.68;;
78181;SDS011;67441;50.116;8.696;2023-06-10T00:45:59;7.63;;;6.72;;
78181;SDS011;67441;50.116;8.696;2023-06-10T00:46:51;8.50;;;7.18;;
78181;SDS011;67441;50.116;8.696;2023-06-10T00:47:20;8.95;;;6.78;;
78181;SDS011;67441;50.116;8.696;2023-06-10T00:48:11;8.75;;;7.00;;
78181;SDS011;67441;50.116;8.696;2023-06-10T00:48:36;7.95;;;6.72;;
78181;SDS011;67441;50.116;8.696;2023-06-10T00:49:03;8.55;;;7.65;;
78181;SDS011;67441;50.116;8.696;2023-06-10T00:49:53;10.10;;;6.90;;
78181;SDS011;67441;50.116;8.696;2023-06-10T00:50:19;10.77;;;7.00;;
78181;SDS011;67441;50.116;8.696;2023-06-10T00:51:11;8.13;;;7.32;;
78181;SDS011;67441;50.116;8.696;2023-06-10T00:52:03;7.95;;;7.15;;
78181;SDS011;67441;50.116;8.696;2023-06-10T00:52:30;7.35;;;6.50;;
78181;SDS011;67441;50.116;8.696;2023-06-10T00:53:22;8.57;;;7.13;;
78181;SDS011;67441;50.116;8.696;2023-06-10T00:54:13;7.57;;;6.47;;
78181;SDS011;67441;50.116;8.696;2023-06-10T00:55:04;7.60;;;6.85;;
78181;SDS011;67441;50.116;8.696;2023-06-10T00:55:30;8.70;;;7.25;;
78181;SDS011;67441;50.116;8.696;2023-06-10T00:55:57;8.05;;;7.25;;
78181;SDS011;67441;50.116;8.696;2023-06-10T00:56:50;8.50;;;7.32;;
78181;SDS011;67441;50.116;8.696;2023-06-10T00:57:40;8.98;;;7.32;;
78181;SDS011;67441;50.116;8.696;2023-06-10T00:58:09;8.18;;;7.35;;
78181;SDS011;67441;50.116;8.696;2023-06-10T00:59:01;8.30;;;6.97;;
78181;SDS011;67441;50.116;8.696;2023-06-10T00:59:51;8.60;;;6.80;;
78181;SDS011;67441;50.116;8.696;2023-06-10T01:00:42;7.47;;;6.70;;
78181;SDS011;67441;50.116;8.696;2023-06-10T01:01:10;8.93;;;7.63;;
78181;SDS011;67441;50.116;8.696;2023-06-10T01:02:03;8.65;;;7.60;;
78181;SDS011;67441;50.116;8.696;2023-06-10T01:02:28;9.18;;;7.18;;
78181;SDS011;67441;50.116;8.696;2023-06-10T01:03:20;8.02;;;7.25;;
78181;SDS011;67441;50.116;8.696;2023-06-10T01:04:10;8.55;;;6.57;;
78181;SDS011;67441;50.116;8.696;2023-06-10T01:04:37;8.57;;;7.32;;
78181;SDS011;67441;50.116;8.696;2023-06-10T01:05:28;9.10;;;7.00;;
78181;SDS011;67441;50.116;8.696;2023-06-10T01:07:48;8.25;;;6.95;;
78181;SDS011;67441;50.116;8.696;2023-06-10T01:08:34;7.47;;;6.78;;
78181;SDS011;67441;50.116;8.696;2023-06-10T01:09:13;8.55;;;7.32;;
78181;SDS011;67441;50.116;8.696;2023-06-10T01:09:54;7.38;;;6.40;;
78181;SDS011;67441;50.116;8.696;2023-06-10T01:10:28;8.00;;;7.18;;
78181;SDS011;67441;50.116;8.696;2023-06-10T01:10:59;8.10;;;6.93;;
78181;SDS011;67441;50.116;8.696;2023-06-10T01:11:29;8.85;;;7.13;;
78181;SDS011;67441;50.116;8.696;2023-06-10T01:12:03;8.50;;;6.78;;
78181;SDS011;67441;50.116;8.696;2023-06-10T01:12:40;8.63;;;7.25;;
78181;SDS011;67441;50.116;8.696;2023-06-10T01:13:13;8.13;;;7.30;;
78181;SDS011;67441;50.116;8.696;2023-06-10T01:13:41;7.57;;;6.82;;
78181;SDS011;67441;50.116;8.696;2023-06-10T01:14:08;8.52;;;6.90;;
78181;SDS011;67441;50.116;8.696;2023-06-10T01:14:35;7.57;;;6.78;;
78181;SDS011;67441;50.116;8.696;2023-06-10T01:15:01;8.57;;;6.93;;
78181;SDS011;67441;50.116;8.696;2023-06-10T01:15:31;8.30;;;7.05;;
78181;SDS011;67441;50.116;8.696;2023-06-10T01:15:58;9.43;;;7.22;;
78181;SDS011;67441;50.116;8.696;2023-06-10T01:16:50;8.65;;;7.35;;
78181;SDS011;67441;50.116;8.696;2023-06-10T01:17:18;8.93;;;7.20;;
78181;SDS011;67441;50.116;8.696;2023-06-10T01:18:18;9.43;;;7.30;;
78181;SDS011;67441;50.116;8.696;2023-06-10T01:19:10;9.57;;;7.20;;
78181;SDS011;67441;50.116;8.696;2023-06-10T01:19:37;10.25;;;7.25;;
78181;SDS011;67441;50.116;8.696;2023-06-10T01:20:29;8.20;;;6.90;;
78181;SDS011;67441;50.116;8.696;2023-06-10T01:20:57;8.02;;;6.93;;
78181;SDS011;67441;50.116;8.696;2023-06-10T01:21:51;8.15;;;6.82;;
78181;SDS011;67441;50.116;8.696;2023-06-10T01:22:42;9.18;;;6.97;;
78181;SDS011;67441;50.116;8.696;2023-06-10T01:23:33;9.00;;;6.95;;
78181;SDS011;67441;50.116;8.696;2023-06-10T01:24:24;8.55;;;6.70;;
78181;SDS011;67441;50.116;8.696;2023-06-10T01:25:15;8.50;;;7.70;;
78181;SDS011;67441;50.116;8.696;2023-06-10T01:26:09;8.63;;;7.13;;
78181;SDS011;67441;50.116;8.696;2023-06-10T01:26:36;8.07;;;6.95;;
78181;SDS011;67441;50.116;8.696;2023-06-10T01:27:32;7.88;;;6.43;;
78181;SDS011;67441;50.116;8.696;2023-06-10T01:28:07;8.90;;;7.43;;
78181;SDS011;67441;50.116;8.696;2023-06-10T01:28:49;7.57;;;6.75;;
78181;SDS011;67441;50.116;8.696;2023-06-10T01:29:26;8.10;;;6.82;;
78181;SDS011;67441;50.116;8.696;2023-06-10T01:30:02;9.23;;;7.20;;
78181;SDS011;67441;50.116;8.696;2023-06-10T01:30:37;9.02;;;7.30;;
78181;SDS011;67441;50.116;8.696;2023-06-10T01:32:00;10.60;;;7.10;;
78181;SDS011;67441;50.116;8.696;2023-06-10T01:32:37;10.55;;;7.20;;
78181;SDS011;67441;50.116;8.696;2023-06-10T01:33:05;11.35;;;6.85;;
78181;SDS011;67441;50.116;8.696;2023-06-10T01:33:35;8.75;;;7.45;;
78181;SDS011;67441;50.116;8.696;2023-06-10T01:34:07;8.90;;;6.63;;
78181;SDS011;67441;50.116;8.696;2023-06-10T01:34:39;8.05;;;6.70;;
78181;SDS011;67441;50.116;8.696;2023-06-10T01:35:07;7.18;;;6.47;;
78181;SDS011;67441;50.116;8.696;2023-06-10T01:35:34;8.60;;;7.20;;
78181;SDS011;67441;50.116;8.696;2023-06-10T01:36:02;7.68;;;6.72;;
78181;SDS011;67441;50.116;8.696;2023-06-10T01:36:28;8.15;;;7.00;;
78181;SDS011;67441;50.116;8.696;2023-06-10T01:36:54;9.13;;;7.65;;
78181;SDS011;67441;50.116;8.696;2023-06-10T01:37:23;7.57;;;6.70;;
78181;SDS011;67441;50.116;8.696;2023-06-10T01:37:51;10.05;;;7.38;;
78181;SDS011;67441;50.116;8.696;2023-06-10T01:38:19;8.30;;;6.75;;
78181;SDS011;67441;50.116;8.696;2023-06-10T01:38:47;8.38;;;7.07;;
78181;SDS011;67441;50.116;8.696;2023-06-10T01:39:18;7.68;;;6.97;;
78181;SDS011;67441;50.116;8.696;2023-06-10T01:39:47;8.27;;;7.43;;
78181;SDS011;67441;50.116;8.696;2023-06-10T01:40:14;10.00;;;7.55;;
78181;SDS011;67441;50.116;8.696;2023-06-10T01:40:41;9.02;;;6.65;;
78181;SDS011;67441;50.116;8.696;2023-06-10T01:41:07;7.07;;;6.10;;
78181;SDS011;67441;50.116;8.696;2023-06-10T01:41:34;7.60;;;6.80;;
78181;SDS011;67441;50.116;8.696;2023-06-10T01:42:00;7.82;;;6.35;;
78181;SDS011;67441;50.116;8.696;2023-06-10T01:42:27;7.88;;;6.15;;
78181;SDS011;67441;50.116;8.696;2023-06-10T01:43:19;7.07;;;6.10;;
78181;SDS011;67441;50.116;8.696;2023-06-10T01:43:45;8.45;;;6.95;;
78181;SDS011;67441;50.116;8.696;2023-06-10T01:44:36;7.40;;;6.63;;
78181;SDS011;67441;50.116;8.696;2023-06-10T01:45:04;8.07;;;7.07;;
78181;SDS011;67441;50.116;8.696;2023-06-10T01:45:55;10.65;;;6.75;;
78181;SDS011;67441;50.116;8.696;2023-06-10T01:46:20;8.65;;;7.13;;
78181;SDS011;67441;50.116;8.696;2023-06-10T01:46:46;9.73;;;7.03;;
78181;SDS011;67441;50.116;8.696;2023-06-10T01:47:12;6.85;;;6.15;;
78181;SDS011;67441;50.116;8.696;2023-06-10T01:48:03;8.65;;;7.20;;
78181;SDS011;67441;50.116;8.696;2023-06-10T01:48:53;7.97;;;7.15;;
78181;SDS011;67441;50.116;8.696;2023-06-10T01:49:44;8.27;;;6.85;;
78181;SDS011;67441;50.116;8.696;2023-06-10T01:50:09;7.18;;;6.47;;
78181;SDS011;67441;50.116;8.696;2023-06-10T01:51:00;7.30;;;6.43;;
78181;SDS011;67441;50.116;8.696;2023-06-10T01:51:25;8.85;;;6.47;;
78181;SDS011;67441;50.116;8.696;2023-06-10T01:52:15;7.53;;;6.50;;
78181;SDS011;67441;50.116;8.696;2023-06-10T01:53:06;8.10;;;6.13;;
78181;SDS011;67441;50.116;8.696;2023-06-10T01:53:57;7.82;;;6.25;;
78181;SDS011;67441;50.116;8.696;2023-06-10T01:54:47;8.25;;;5.90;;
78181;SDS011;67441;50.116;8.696;2023-06-10T01:55:38;7.05;;;6.35;;
78181;SDS011;67441;50.116;8.696;2023-06-10T01:56:03;8.95;;;6.63;;
78181;SDS011;67441;50.116;8.696;2023-06-10T01:56:54;6.65;;;5.95;;
78181;SDS011;67441;50.116;8.696;2023-06-10T01:57:44;7.47;;;6.55;;
78181;SDS011;67441;50.116;8.696;2023-06-10T01:58:35;8.90;;;6.50;;
78181;SDS011;67441;50.116;8.696;2023-06-10T01:59:25;8.05;;;6.68;;
78181;SDS011;67441;50.116;8.696;2023-06-10T02:00:16;7.65;;;6.47;;
78181;SDS011;67441;50.116;8.696;2023-06-10T02:00:41;7.10;;;6.22;;
78181;SDS011;67441;50.116;8.696;2023-06-10T02:01:33;7.00;;;6.20;;
78181;SDS011;67441;50.116;8.696;2023-06-10T02:01:58;9.57;;;6.70;;
78181;SDS011;67441;50.116;8.696;2023-06-10T02:02:50;10.18;;;6.90;;
78181;SDS011;67441;50.116;8.696;2023-06-10T02:03:40;6.50;;;5.85;;
78181;SDS011;67441;50.116;8.696;2023-06-10T02:04:31;8.90;;;6.47;;
78181;SDS011;67441;50.116;8.696;2023-06-10T02:05:22;7.63;;;6.85;;
78181;SDS011;67441;50.116;8.696;2023-06-10T02:06:13;7.32;;;6.43;;
78181;SDS011;67441;50.116;8.696;2023-06-10T02:07:04;7.68;;;6.32;;
78181;SDS011;67441;50.116;8.696;2023-06-10T02:07:30;8.10;;;6.25;;
78181;SDS011;67441;50.116;8.696;2023-06-10T02:08:21;8.00;;;6.30;;
78181;SDS011;67441;50.116;8.696;2023-06-10T02:09:11;6.82;;;6.05;;
78181;SDS011;67441;50.116;8.696;2023-06-10T02:10:02;6.57;;;5.88;;
78181;SDS011;67441;50.116;8.696;2023-06-10T02:10:27;6.97;;;6.28;;
78181;SDS011;67441;50.116;8.696;2023-06-10T02:11:18;8.10;;;6.10;;
78181;SDS011;67441;50.116;8.696;2023-06-10T02:12:09;8.68;;;6.20;;
78181;SDS011;67441;50.116;8.696;2023-06-10T02:12:35;7.45;;;6.72;;
78181;SDS011;67441;50.116;8.696;2023-06-10T02:13:25;7.95;;;6.07;;
78181;SDS011;67441;50.116;8.696;2023-06-10T02:14:16;8.32;;;7.18;;
78181;SDS011;67441;50.116;8.696;2023-06-10T02:15:06;7.15;;;6.10;;
78181;SDS011;67441;50.116;8.696;2023-06-10T02:15:57;8.32;;;6.50;;
78181;SDS011;67441;50.116;8.696;2023-06-10T02:16:47;7.47;;;6.40;;
78181;SDS011;67441;50.116;8.696;2023-06-10T02:17:39;8.65;;;6.60;;
78181;SDS011;67441;50.116;8.696;2023-06-10T02:18:30;8.07;;;6.97;;
78181;SDS011;67441;50.116;8.696;2023-06-10T02:19:21;8.82;;;5.85;;
78181;SDS011;67441;50.116;8.696;2023-06-10T02:19:47;8.52;;;6.47;;
78181;SDS011;67441;50.116;8.696;2023-06-10T02:20:17;7.90;;;6.60;;
78181;SDS011;67441;50.116;8.696;2023-06-10T02:21:09;8.50;;;6.53;;
78181;SDS011;67441;50.116;8.696;2023-06-10T02:21:35;8.75;;;7.03;;
78181;SDS011;67441;50.116;8.696;2023-06-10T02:22:26;9.75;;;7.07;;
78181;SDS011;67441;50.116;8.696;2023-06-10T02:23:16;7.43;;;6.63;;
78181;SDS011;67441;50.116;8.696;2023-06-10T02:24:07;7.35;;;6.28;;
78181;SDS011;67441;50.116;8.696;2023-06-10T02:24:57;7.68;;;6.88;;
78181;SDS011;67441;50.116;8.696;2023-06-10T02:25:48;8.18;;;6.30;;
78181;SDS011;67441;50.116;8.696;2023-06-10T02:26:38;8.52;;;5.70;;
78181;SDS011;67441;50.116;8.696;2023-06-10T02:27:05;7.88;;;6.03;;
78181;SDS011;67441;50.116;8.696;2023-06-10T02:27:33;8.50;;;6.65;;
78181;SDS011;67441;50.116;8.696;2023-06-10T02:28:23;7.22;;;6.53;;
78181;SDS011;67441;50.116;8.696;2023-06-10T02:29:14;7.43;;;6.43;;
78181;SDS011;67441;50.116;8.696;2023-06-10T02:30:06;7.30;;;6.28;;
78181;SDS011;67441;50.116;8.696;2023-06-10T02:30:34;8.07;;;6.72;;
78181;SDS011;67441;50.116;8.696;2023-06-10T02:31:25;8.90;;;6.68;;
78181;SDS011;67441;50.116;8.696;2023-06-10T02:32:17;7.55;;;6.25;;
78181;SDS011;67441;50.116;8.696;2023-06-10T02:33:18;9.23;;;6.82;;
78181;SDS011;67441;50.116;8.696;2023-06-10T02:33:44;7.75;;;6.95;;
78181;SDS011;67441;50.116;8.696;2023-06-10T02:34:35;7.50;;;6.35;;
78181;SDS011;67441;50.116;8.696;2023-06-10T02:35:01;7.53;;;6.70;;
78181;SDS011;67441;50.116;8.696;2023-06-10T02:35:52;8.38;;;6.32;;
78181;SDS011;67441;50.116;8.696;2023-06-10T02:36:42;7.32;;;6.40;;
78181;SDS011;67441;50.116;8.696;2023-06-10T02:37:33;7.47;;;6.15;;
78181;SDS011;67441;50.116;8.696;2023-06-10T02:38:24;7.10;;;6.07;;
78181;SDS011;67441;50.116;8.696;2023-06-10T02:39:15;8.20;;;6.68;;
78181;SDS011;67441;50.116;8.696;2023-06-10T02:40:06;7.05;;;6.25;;
78181;SDS011;67441;50.116;8.696;2023-06-10T02:40:32;8.50;;;6.50;;
78181;SDS011;67441;50.116;8.696;2023-06-10T02:41:22;7.68;;;6.60;;
78181;SDS011;67441;50.116;8.696;2023-06-10T02:41:48;8.43;;;6.95;;
78181;SDS011;67441;50.116;8.696;2023-06-10T02:42:38;7.32;;;6.15;;
78181;SDS011;67441;50.116;8.696;2023-06-10T02:43:29;9.27;;;6.70;;
78181;SDS011;67441;50.116;8.696;2023-06-10T02:44:19;7.32;;;5.88;;
78181;SDS011;67441;50.116;8.696;2023-06-10T02:45:10;7.18;;;6.40;;
78181;SDS011;67441;50.116;8.696;2023-06-10T02:46:01;8.10;;;6.05;;
78181;SDS011;67441;50.116;8.696;2023-06-10T02:46:53;6.43;;;5.82;;
78181;SDS011;67441;50.116;8.696;2023-06-10T02:47:44;7.43;;;6.35;;
78181;SDS011;67441;50.116;8.696;2023-06-10T02:48:09;6.95;;;6.13;;
78181;SDS011;67441;50.116;8.696;2023-06-10T02:49:07;8.70;;;6.25;;
78181;SDS011;67441;50.116;8.696;2023-06-10T02:49:57;7.43;;;6.70;;
78181;SDS011;67441;50.116;8.696;2023-06-10T02:50:48;6.75;;;6.05;;
78181;SDS011;67441;50.116;8.696;2023-06-10T02:51:13;8.25;;;6.30;;
78181;SDS011;67441;50.116;8.696;2023-06-10T02:52:04;7.13;;;5.93;;
78181;SDS011;67441;50.116;8.696;2023-06-10T02:52:32;7.85;;;6.50;;
78181;SDS011;67441;50.116;8.696;2023-06-10T02:53:23;7.97;;;7.15;;
78181;SDS011;67441;50.116;8.696;2023-06-10T02:54:13;6.95;;;5.93;;
78181;SDS011;67441;50.116;8.696;2023-06-10T02:55:04;8.13;;;5.95;;
78181;SDS011;67441;50.116;8.696;2023-06-10T02:55:55;7.05;;;6.35;;
78181;SDS011;67441;50.116;8.696;2023-06-10T02:56:46;7.70;;;6.20;;
78181;SDS011;67441;50.116;8.696;2023-06-10T02:57:13;6.70;;;6.00;;
78181;SDS011;67441;50.116;8.696;2023-06-10T02:57:39;8.75;;;6.25;;
78181;SDS011;67441;50.116;8.696;2023-06-10T02:58:30;7.38;;;6.47;;
78181;SDS011;67441;50.116;8.696;2023-06-10T02:58:55;10.05;;;6.18;;
78181;SDS011;67441;50.116;8.696;2023-06-10T02:59:46;6.82;;;6.03;;
78181;SDS011;67441;50.116;8.696;2023-06-10T03:00:39;8.52;;;6.47;;
78181;SDS011;67441;50.116;8.696;2023-06-10T03:01:05;8.88;;;6.30;;
78181;SDS011;67441;50.116;8.696;2023-06-10T03:01:56;7.35;;;6.43;;
78181;SDS011;67441;50.116;8.696;2023-06-10T03:02:47;7.75;;;5.82;;
78181;SDS011;67441;50.116;8.696;2023-06-10T03:03:38;7.30;;;6.47;;
78181;SDS011;67441;50.116;8.696;2023-06-10T03:04:07;7.72;;;5.70;;
78181;SDS011;67441;50.116;8.696;2023-06-10T03:04:58;10.05;;;6.43;;
78181;SDS011;67441;50.116;8.696;2023-06-10T03:05:49;8.52;;;6.75;;
78181;SDS011;67441;50.116;8.696;2023-06-10T03:06:39;7.63;;;6.55;;
78181;SDS011;67441;50.116;8.696;2023-06-10T03:07:05;6.95;;;5.78;;
78181;SDS011;67441;50.116;8.696;2023-06-10T03:07:32;7.95;;;6.20;;
78181;SDS011;67441;50.116;8.696;2023-06-10T03:08:22;7.85;;;5.78;;
78181;SDS011;67441;50.116;8.696;2023-06-10T03:09:13;7.20;;;5.97;;
78181;SDS011;67441;50.116;8.696;2023-06-10T03:10:03;5.97;;;5.30;;
78181;SDS011;67441;50.116;8.696;2023-06-10T03:10:30;7.10;;;6.38;;
78181;SDS011;67441;50.116;8.696;2023-06-10T03:10:57;6.80;;;6.07;;
78181;SDS011;67441;50.116;8.696;2023-06-10T03:11:48;6.65;;;5.88;;
78181;SDS011;67441;50.116;8.696;2023-06-10T03:12:38;9.00;;;7.35;;
78181;SDS011;67441;50.116;8.696;2023-06-10T03:13:29;8.18;;;6.18;;
78181;SDS011;67441;50.116;8.696;2023-06-10T03:14:21;8.45;;;6.32;;
78181;SDS011;67441;50.116;8.696;2023-06-10T03:15:11;7.72;;;6.25;;
78181;SDS011;67441;50.116;8.696;2023-06-10T03:16:02;8.48;;;6.63;;
78181;SDS011;67441;50.116;8.696;2023-06-10T03:16:29;7.30;;;5.63;;
78181;SDS011;67441;50.116;8.696;2023-06-10T03:16:56;8.43;;;6.97;;
78181;SDS011;67441;50.116;8.696;2023-06-10T03:17:46;8.32;;;5.72;;
78181;SDS011;67441;50.116;8.696;2023-06-10T03:18:11;7.35;;;6.25;;
78181;SDS011;67441;50.116;8.696;2023-06-10T03:19:02;7.65;;;6.15;;
78181;SDS011;67441;50.116;8.696;2023-06-10T03:19:53;7.10;;;5.95;;
78181;SDS011;67441;50.116;8.696;2023-06-10T03:20:43;9.02;;;6.60;;
78181;SDS011;67441;50.116;8.696;2023-06-10T03:21:34;7.75;;;6.05;;
78181;SDS011;67441;50.116;8.696;2023-06-10T03:22:09;8.38;;;6.40;;
78181;SDS011;67441;50.116;8.696;2023-06-10T03:22:35;7.25;;;6.45;;
78181;SDS011;67441;50.116;8.696;2023-06-10T03:23:26;8.27;;;6.68;;
78181;SDS011;67441;50.116;8.696;2023-06-10T03:23:52;8.23;;;6.43;;
78181;SDS011;67441;50.116;8.696;2023-06-10T03:24:42;9.18;;;6.07;;
78181;SDS011;67441;50.116;8.696;2023-06-10T03:25:38;6.55;;;5.85;;
78181;SDS011;67441;50.116;8.696;2023-06-10T03:26:29;7.22;;;6.53;;
78181;SDS011;67441;50.116;8.696;2023-06-10T03:27:21;7.25;;;5.88;;
78181;SDS011;67441;50.116;8.696;2023-06-10T03:28:11;7.93;;;6.32;;
78181;SDS011;67441;50.116;8.696;2023-06-10T03:29:02;7.63;;;6.82;;
78181;SDS011;67441;50.116;8.696;2023-06-10T03:29:52;6.88;;;5.72;;
78181;SDS011;67441;50.116;8.696;2023-06-10T03:30:18;8.00;;;6.65;;
78181;SDS011;67441;50.116;8.696;2023-06-10T03:31:08;6.75;;;6.10;;
78181;SDS011;67441;50.116;8.696;2023-06-10T03:32:02;9.40;;;6.05;;
78181;SDS011;67441;50.116;8.696;2023-06-10T03:32:53;9.38;;;6.10;;
78181;SDS011;67441;50.116;8.696;2023-06-10T03:33:43;7.38;;;6.10;;
78181;SDS011;67441;50.116;8.696;2023-06-10T03:34:34;7.93;;;6.07;;
78181;SDS011;67441;50.116;8.696;2023-06-10T03:35:24;9.32;;;6.00;;
78181;SDS011;67441;50.116;8.696;2023-06-10T03:36:15;9.15;;;6.80;;
78181;SDS011;67441;50.116;8.696;2023-06-10T03:37:07;7.15;;;5.68;;
78181;SDS011;67441;50.116;8.696;2023-06-10T03:37:58;6.90;;;5.90;;
78181;SDS011;67441;50.116;8.696;2023-06-10T03:38:49;7.57;;;6.40;;
78181;SDS011;67441;50.116;8.696;2023-06-10T03:39:16;8.43;;;6.20;;
78181;SDS011;67441;50.116;8.696;2023-06-10T03:40:07;7.57;;;5.90;;
78181;SDS011;67441;50.116;8.696;2023-06-10T03:40:34;6.72;;;5.72;;
78181;SDS011;67441;50.116;8.696;2023-06-10T03:41:25;6.78;;;6.13;;
78181;SDS011;67441;50.116;8.696;2023-06-10T03:42:16;8.07;;;6.18;;
78181;SDS011;67441;50.116;8.696;2023-06-10T03:43:06;7.38;;;6.57;;
78181;SDS011;67441;50.116;8.696;2023-06-10T03:43:57;7.78;;;5.68;;
78181;SDS011;67441;50.116;8.696;2023-06-10T03:44:49;7.82;;;6.00;;
78181;SDS011;67441;50.116;8.696;2023-06-10T03:45:40;8.88;;;6.03;;
78181;SDS011;67441;50.116;8.696;2023-06-10T03:46:06;7.68;;;6.20;;
78181;SDS011;67441;50.116;8.696;2023-06-10T03:46:56;8.07;;;6.32;;
78181;SDS011;67441;50.116;8.696;2023-06-10T03:47:47;8.25;;;6.13;;
78181;SDS011;67441;50.116;8.696;2023-06-10T03:48:38;8.48;;;5.65;;
78181;SDS011;67441;50.116;8.696;2023-06-10T03:49:04;7.00;;;6.00;;
78181;SDS011;67441;50.116;8.696;2023-06-10T03:49:55;8.70;;;6.30;;
78181;SDS011;67441;50.116;8.696;2023-06-10T03:50:20;7.40;;;6.20;;
78181;SDS011;67441;50.116;8.696;2023-06-10T03:50:47;9.43;;;6.40;;
78181;SDS011;67441;50.116;8.696;2023-06-10T03:51:15;7.80;;;6.63;;
78181;SDS011;67441;50.116;8.696;2023-06-10T03:52:06;7.65;;;6.22;;
78181;SDS011;67441;50.116;8.696;2023-06-10T03:52:57;7.53;;;5.78;;
78181;SDS011;67441;50.116;8.696;2023-06-10T03:53:48;8.63;;;5.80;;
78181;SDS011;67441;50.116;8.696;2023-06-10T03:54:13;6.80;;;6.13;;
78181;SDS011;67441;50.116;8.696;2023-06-10T03:54:38;6.70;;;5.68;;
78181;SDS011;67441;50.116;8.696;2023-06-10T03:55:29;7.75;;;6.15;;
78181;SDS011;67441;50.116;8.696;2023-06-10T03:55:56;7.63;;;5.95;;
78181;SDS011;67441;50.116;8.696;2023-06-10T03:56:47;7.40;;;6.00;;
78181;SDS011;67441;50.116;8.696;2023-06-10T03:57:15;8.30;;;6.28;;
78181;SDS011;67441;50.116;8.696;2023-06-10T03:58:06;6.22;;;5.55;;
78181;SDS011;67441;50.116;8.696;2023-06-10T03:58:56;7.13;;;6.35;;
78181;SDS011;67441;50.116;8.696;2023-06-10T03:59:47;8.63;;;5.88;;
78181;SDS011;67441;50.116;8.696;2023-06-10T04:00:12;7.35;;;6.20;;
78181;SDS011;67441;50.116;8.696;2023-06-10T04:01:06;8.02;;;6.18;;
78181;SDS011;67441;50.116;8.696;2023-06-10T04:01:58;6.63;;;5.65;;
78181;SDS011;67441;50.116;8.696;2023-06-10T04:02:48;7.55;;;6.03;;
78181;SDS011;67441;50.116;8.696;2023-06-10T04:03:16;6.95;;;5.85;;
78181;SDS011;67441;50.116;8.696;2023-06-10T04:04:08;6.72;;;6.03;;
78181;SDS011;67441;50.116;8.696;2023-06-10T04:04:59;7.90;;;5.75;;
78181;SDS011;67441;50.116;8.696;2023-06-10T04:05:50;6.22;;;5.40;;
78181;SDS011;67441;50.116;8.696;2023-06-10T04:06:41;8.13;;;5.72;;
78181;SDS011;67441;50.116;8.696;2023-06-10T04:07:08;7.57;;;5.78;;
78181;SDS011;67441;50.116;8.696;2023-06-10T04:07:59;6.88;;;5.55;;
78181;SDS011;67441;50.116;8.696;2023-06-10T04:08:26;7.35;;;5.57;;
78181;SDS011;67441;50.116;8.696;2023-06-10T04:09:17;7.15;;;5.38;;
78181;SDS011;67441;50.116;8.696;2023-06-10T04:10:08;10.80;;;6.30;;
78181;SDS011;67441;50.116;8.696;2023-06-10T04:10:33;7.32;;;5.88;;
78181;SDS011;67441;50.116;8.696;2023-06-10T04:11:24;7.00;;;5.35;;
78181;SDS011;67441;50.116;8.696;2023-06-10T04:12:15;6.82;;;6.00;;
78181;SDS011;67441;50.116;8.696;2023-06-10T04:12:41;6.93;;;5.60;;
78181;SDS011;67441;50.116;8.696;2023-06-10T04:13:32;7.78;;;5.70;;
78181;SDS011;67441;50.116;8.696;2023-06-10T04:14:22;7.18;;;5.85;;
78181;SDS011;67441;50.116;8.696;2023-06-10T04:15:13;6.35;;;5.60;;